Terminal Aerodrome Forecast
Issued by NWS Sioux Falls, SD

Home | Current Version | Previous Version | Text Only | Print | Product List | Glossary On
Versions: 1 2 3 4 5 6 7 8 9 10 11 12 13 14 15 16
000
FTUS43 KFSD 251100 AAA
TAFHON
TAF AMD
KHON 251100Z 2511/2606 02004KT P6SM SCT020 BKN080
     FM251500 01007KT 6SM BR OVC020
     FM251800 01013KT P6SM OVC015
     FM252200 36015KT 2SM -SN OVC007=

USA.gov is the U.S. government's official web portal to all federal, state and local government web resources and services.